Time;durP1;ratioP1;P1;durP2;ratioP2;P2;SDS_P1;SDS_P2;PMS_P1;PMS_P2;Temp;Humidity;BMP_temperature;BMP_pressure;BME280_temperature;BME280_humidity;BME280_pressure;Samples;Min_cycle;Max_cycle;Signal;HPM_P1;HPM_P2
2022/01/19 00:02:01;;;;;;;56.25;24.67;;;4.80;84.40;;;;;;4958561;28;20199;-87
2022/01/19 00:04:27;;;;;;;54.67;24.23;;;4.70;84.90;;;;;;4956322;28;20187;-87
2022/01/19 00:06:53;;;;;;;58.30;23.67;;;4.60;85.20;;;;;;4949194;28;20203;-87
2022/01/19 00:09:18;;;;;;;47.50;24.63;;;4.50;85.60;;;;;;4961232;28;20233;-87
2022/01/19 00:11:44;;;;;;;62.53;26.83;;;4.50;86.10;;;;;;4961864;28;20199;-87
2022/01/19 00:14:10;;;;;;;60.40;26.53;;;4.40;86.30;;;;;;4960913;28;20172;-87
2022/01/19 00:16:35;;;;;;;73.40;26.20;;;4.40;86.60;;;;;;4945175;29;20673;-87
2022/01/19 00:19:01;;;;;;;51.90;24.77;;;4.40;86.80;;;;;;4940246;29;20728;-87
2022/01/19 00:21:27;;;;;;;57.67;27.30;;;4.40;86.90;;;;;;4945469;28;20190;-87
2022/01/19 00:23:53;;;;;;;54.53;26.53;;;4.70;87.10;;;;;;4958331;28;20431;-87
2022/01/19 00:26:18;;;;;;;60.27;23.70;;;5.00;86.70;;;;;;4959078;28;20602;-87
2022/01/19 00:28:44;;;;;;;59.80;23.97;;;5.20;85.80;;;;;;4958411;28;20192;-87
2022/01/19 00:31:10;;;;;;;57.77;26.37;;;5.40;85.10;;;;;;4957161;28;20179;-87
2022/01/19 00:33:36;;;;;;;54.10;25.90;;;5.40;84.60;;;;;;4939532;29;20280;-87
2022/01/19 00:36:03;;;;;;;46.97;23.15;;;5.30;84.30;;;;;;4938983;29;20239;-88
2022/01/19 00:38:29;;;;;;;51.20;22.73;;;5.30;84.20;;;;;;4938736;29;20173;-88
2022/01/19 00:40:57;;;;;;;49.73;26.00;;;5.30;84.10;;;;;;4938761;29;20204;-88
2022/01/19 00:43:23;;;;;;;64.72;26.30;;;5.10;83.90;;;;;;4938291;29;20240;-88
2022/01/19 00:45:49;;;;;;;57.40;22.38;;;4.80;84.10;;;;;;4955893;29;20224;-88
2022/01/19 00:48:15;;;;;;;53.30;26.00;;;4.70;84.50;;;;;;4939152;29;20215;-88
2022/01/19 00:50:40;;;;;;;62.97;27.23;;;4.90;84.70;;;;;;4975642;28;20172;-88
2022/01/19 00:53:06;;;;;;;55.33;27.57;;;5.10;84.50;;;;;;4946082;28;20200;-88
2022/01/19 00:55:31;;;;;;;56.13;25.00;;;5.10;84.40;;;;;;4938818;29;20200;-88
2022/01/19 00:57:57;;;;;;;65.63;26.57;;;5.20;84.30;;;;;;4939024;29;20211;-88
2022/01/19 01:00:27;;;;;;;58.40;25.10;;;5.00;84.10;;;;;;4939229;29;20671;-87
2022/01/19 01:02:53;;;;;;;59.38;25.63;;;4.80;84.20;;;;;;4964197;29;20164;-88
2022/01/19 01:05:26;;;;;;;52.47;26.52;;;4.70;84.50;;;;;;4960735;28;20180;-88
2022/01/19 01:07:52;;;;;;;66.75;28.17;;;4.70;84.90;;;;;;4965425;29;20168;-87
2022/01/19 01:10:20;;;;;;;89.47;30.27;;;4.60;85.20;;;;;;4938040;29;20197;-88
2022/01/19 01:12:49;;;;;;;66.00;28.00;;;4.50;85.50;;;;;;4938126;29;20451;-88
2022/01/19 01:20:28;;;;;;;60.08;25.52;;;5.20;85.00;;;;;;4977096;28;20474;-88
2022/01/19 01:22:54;;;;;;;60.60;26.85;;;5.30;84.40;;;;;;4980981;28;20168;-88
2022/01/19 01:25:20;;;;;;;57.72;25.55;;;5.30;84.00;;;;;;4970157;28;20208;-88
2022/01/19 01:27:46;;;;;;;46.67;22.80;;;5.20;83.80;;;;;;4957470;28;20330;-88
2022/01/19 01:30:13;;;;;;;62.10;26.85;;;5.00;83.80;;;;;;4957477;28;20180;-88
2022/01/19 01:32:38;;;;;;;60.80;25.45;;;5.00;84.00;;;;;;4951925;29;20212;-88
2022/01/19 01:35:07;;;;;;;64.40;29.73;;;4.80;84.10;;;;;;4939841;29;20633;-88
2022/01/19 01:37:33;;;;;;;57.35;26.35;;;4.70;84.40;;;;;;4942987;29;20212;-88
2022/01/19 01:40:01;;;;;;;54.73;25.50;;;4.70;84.60;;;;;;4942157;29;20181;-88
2022/01/19 01:42:26;;;;;;;53.70;26.27;;;4.80;84.70;;;;;;4940018;29;20187;-88
2022/01/19 01:44:55;;;;;;;59.83;26.40;;;4.90;84.50;;;;;;4940494;29;20622;-88
2022/01/19 01:47:22;;;;;;;56.38;25.92;;;5.00;84.30;;;;;;4941201;29;20451;-88
2022/01/19 01:55:15;;;;;;;60.35;25.73;;;4.60;84.30;;;;;;4971417;28;20182;-88
2022/01/19 01:57:40;;;;;;;45.28;23.70;;;4.60;84.60;;;;;;4956795;28;20192;-88
2022/01/19 02:00:10;;;;;;;56.17;27.53;;;4.90;84.40;;;;;;4956663;28;20172;-87
2022/01/19 02:02:36;;;;;;;77.13;27.15;;;5.00;84.40;;;;;;4973708;28;20210;-87
2022/01/19 02:05:02;;;;;;;74.45;29.48;;;5.10;83.40;;;;;;4949810;29;20265;-87
2022/01/19 02:08:36;;;;;;;82.00;29.83;;;5.00;83.20;;;;;;4937650;29;20204;-87
2022/01/19 02:16:11;;;;;;;83.32;28.52;;;4.90;83.40;;;;;;4955416;29;20228;-87
2022/01/19 02:24:05;;;;;;;76.30;27.63;;;4.60;84.40;;;;;;4974006;28;20164;-88
2022/01/19 02:26:47;;;;;;;73.90;27.75;;;4.80;84.40;;;;;;4956398;28;20207;-88
2022/01/19 02:36:31;;;;;;;64.90;27.27;;;4.80;84.10;;;;;;4978149;28;20180;-88
2022/01/19 02:42:38;;;;;;;61.88;25.60;;;4.70;84.00;;;;;;4997155;28;20284;-88
2022/01/19 02:49:58;;;;;;;59.70;25.47;;;4.80;83.60;;;;;;4972301;28;20586;-88
2022/01/19 02:52:25;;;;;;;54.10;26.85;;;4.70;83.50;;;;;;4976097;28;20180;-89
2022/01/19 02:54:52;;;;;;;65.88;29.58;;;4.70;83.60;;;;;;4960712;28;20644;-88
2022/01/19 02:57:20;;;;;;;70.28;28.45;;;4.80;83.50;;;;;;4991198;28;20212;-88
2022/01/19 03:10:20;;;;;;;55.90;25.92;;;4.90;82.90;;;;;;4959609;29;20180;-87
2022/01/19 03:12:46;;;;;;;59.63;25.47;;;4.90;83.00;;;;;;4942360;29;20185;-87
2022/01/19 03:15:13;;;;;;;53.70;25.73;;;4.90;83.00;;;;;;4947750;29;20185;-87
2022/01/19 03:17:39;;;;;;;60.70;26.90;;;4.70;82.90;;;;;;4941715;29;20201;-87
2022/01/19 03:20:07;;;;;;;65.40;27.60;;;4.70;82.90;;;;;;4940414;29;20200;-87
2022/01/19 03:22:42;;;;;;;55.08;25.60;;;4.60;82.70;;;;;;4940080;29;20271;-88
2022/01/19 03:25:12;;;;;;;48.55;22.33;;;4.60;82.60;;;;;;4938296;29;20180;-87
2022/01/19 03:27:39;;;;;;;51.78;24.45;;;4.60;82.50;;;;;;4937372;29;20193;-86
2022/01/19 03:30:07;;;;;;;63.78;23.70;;;4.60;82.30;;;;;;4946114;29;20189;-88
2022/01/19 03:32:33;;;;;;;58.90;25.60;;;4.60;82.00;;;;;;4944589;29;20283;-88
2022/01/19 03:34:59;;;;;;;61.13;25.10;;;4.50;81.90;;;;;;4923977;29;20223;-87
2022/01/19 03:37:25;;;;;;;57.40;24.30;;;4.40;82.00;;;;;;4939489;29;20914;-88
2022/01/19 03:39:51;;;;;;;49.10;23.33;;;4.40;82.30;;;;;;4939844;29;20275;-88
2022/01/19 03:42:16;;;;;;;48.47;21.60;;;4.20;82.10;;;;;;4938786;29;20191;-87
2022/01/19 03:44:43;;;;;;;53.43;24.93;;;4.30;82.40;;;;;;4939540;29;20177;-87
2022/01/19 03:47:09;;;;;;;53.55;25.00;;;4.30;82.40;;;;;;4939540;29;20200;-88
2022/01/19 03:49:35;;;;;;;60.53;25.33;;;4.30;82.40;;;;;;4939397;29;20188;-87
2022/01/19 03:52:04;;;;;;;49.43;24.73;;;4.40;82.30;;;;;;4939937;29;20189;-88
2022/01/19 03:54:35;;;;;;;44.30;23.10;;;4.40;82.40;;;;;;4939075;29;20443;-88
2022/01/19 03:57:01;;;;;;;53.28;25.90;;;4.40;82.40;;;;;;4951018;28;20208;-87
2022/01/19 03:59:27;;;;;;;49.38;25.13;;;4.30;82.50;;;;;;4958967;28;20176;-88
2022/01/19 04:01:53;;;;;;;57.63;27.47;;;4.30;82.80;;;;;;4958950;28;20242;-87
2022/01/19 04:04:35;;;;;;;58.03;26.23;;;4.10;83.00;;;;;;4958986;28;20467;-88
2022/01/19 04:07:08;;;;;;;46.25;24.80;;;3.90;83.50;;;;;;4960764;28;20691;-88
2022/01/19 04:09:40;;;;;;;65.40;26.77;;;4.00;84.00;;;;;;4977707;28;20176;-88
2022/01/19 04:12:08;;;;;;;58.50;27.65;;;4.30;84.30;;;;;;4965126;28;20180;-88
2022/01/19 04:14:34;;;;;;;59.85;26.73;;;4.50;84.00;;;;;;4940241;29;20189;-88
2022/01/19 04:17:11;;;;;;;55.90;25.70;;;4.60;83.80;;;;;;4956555;29;20220;-87
2022/01/19 04:22:08;;;;;;;47.40;23.50;;;4.60;83.20;;;;;;4957027;29;20223;-87
2022/01/19 04:24:35;;;;;;;45.40;22.20;;;4.60;83.30;;;;;;4955951;29;20195;-87
2022/01/19 04:29:49;;;;;;;42.70;21.80;;;4.40;83.50;;;;;;4956363;29;20641;-87
2022/01/19 04:35:03;;;;;;;42.45;20.38;;;4.40;84.40;;;;;;4964250;28;20308;-87
2022/01/19 04:37:47;;;;;;;39.03;21.15;;;4.50;84.60;;;;;;4977116;28;20215;-88
2022/01/19 04:48:36;;;;;;;45.58;20.48;;;4.80;84.20;;;;;;4978349;28;20167;-87
2022/01/19 05:02:38;;;;;;;34.47;17.48;;;5.10;83.10;;;;;;4975122;28;20167;-87
2022/01/19 05:05:08;;;;;;;34.55;17.10;;;5.00;83.10;;;;;;4974183;28;20184;-87
2022/01/19 05:07:41;;;;;;;37.53;19.88;;;4.90;83.00;;;;;;4957534;28;20208;-87
2022/01/19 05:15:36;;;;;;;31.85;17.13;;;5.10;83.10;;;;;;4976596;28;20254;-87
2022/01/19 05:18:03;;;;;;;34.08;18.67;;;5.20;82.90;;;;;;4957849;28;20281;-87
2022/01/19 05:20:29;;;;;;;34.40;18.38;;;5.40;82.60;;;;;;4957521;28;20184;-87
2022/01/19 05:22:55;;;;;;;35.60;17.90;;;5.40;82.40;;;;;;4957000;28;20179;-87
2022/01/19 05:25:20;;;;;;;37.30;18.20;;;5.40;82.10;;;;;;4957659;28;20231;-87
2022/01/19 05:27:46;;;;;;;33.57;16.97;;;5.30;82.00;;;;;;4976667;28;20531;-88
2022/01/19 05:30:13;;;;;;;29.90;16.63;;;5.20;82.00;;;;;;4958787;28;20208;-88
2022/01/19 05:32:38;;;;;;;32.20;16.45;;;5.30;82.20;;;;;;4974027;28;20262;-87
2022/01/19 05:35:05;;;;;;;37.43;14.97;;;5.40;82.10;;;;;;4956972;28;20242;-88
2022/01/19 05:37:36;;;;;;;39.42;19.15;;;5.60;81.70;;;;;;4956854;28;20207;-88
2022/01/19 05:40:06;;;;;;;32.97;16.55;;;5.50;81.60;;;;;;4956756;28;20179;-88
2022/01/19 05:42:31;;;;;;;37.15;16.05;;;5.50;81.40;;;;;;4944530;29;20181;-88
2022/01/19 05:44:57;;;;;;;39.83;17.80;;;5.80;81.10;;;;;;4937630;29;20514;-88
2022/01/19 05:47:23;;;;;;;30.00;16.53;;;5.70;81.00;;;;;;4937940;29;20320;-88
2022/01/19 05:49:49;;;;;;;25.50;14.80;;;5.80;80.90;;;;;;4938066;29;20264;-88
2022/01/19 05:52:15;;;;;;;35.57;17.00;;;5.90;80.80;;;;;;4938000;29;20439;-87
2022/01/19 05:54:41;;;;;;;26.50;14.90;;;5.80;80.50;;;;;;4954965;29;20432;-88
2022/01/19 05:57:07;;;;;;;29.75;16.88;;;5.80;80.50;;;;;;4952666;29;20475;-88
2022/01/19 05:59:33;;;;;;;27.90;16.25;;;6.00;80.00;;;;;;4974883;28;20188;-88
2022/01/19 06:01:59;;;;;;;29.40;16.20;;;5.80;79.90;;;;;;4939841;29;20649;-88
2022/01/19 06:04:25;;;;;;;29.73;15.10;;;5.80;80.00;;;;;;4938263;29;20265;-88
2022/01/19 06:06:53;;;;;;;31.07;18.33;;;5.90;80.00;;;;;;4943210;29;20555;-88
2022/01/19 06:09:49;;;;;;;31.15;15.52;;;5.80;79.90;;;;;;4945279;29;20210;-88
2022/01/19 06:12:10;;;;;;;28.08;15.93;;;5.90;80.00;;;;;;4967089;28;20180;-87
2022/01/19 06:14:37;;;;;;;26.63;14.73;;;5.90;79.90;;;;;;4963657;28;20184;-88
2022/01/19 06:17:04;;;;;;;24.27;14.65;;;5.70;79.60;;;;;;4982587;28;20207;-88
2022/01/19 06:19:31;;;;;;;32.70;15.77;;;5.60;79.90;;;;;;4962157;28;20183;-87
2022/01/19 06:22:09;;;;;;;26.85;15.23;;;5.80;80.00;;;;;;4955876;29;20173;-87
2022/01/19 06:24:35;;;;;;;29.02;14.82;;;5.70;79.90;;;;;;4941080;29;20173;-87
2022/01/19 06:27:01;;;;;;;27.73;14.30;;;5.90;80.00;;;;;;4959077;28;20307;-88
2022/01/19 06:29:26;;;;;;;36.13;16.30;;;6.00;79.50;;;;;;4945870;29;20181;-87
2022/01/19 06:31:52;;;;;;;24.93;14.93;;;6.00;79.50;;;;;;4949679;29;20177;-88
2022/01/19 06:34:18;;;;;;;28.57;14.70;;;6.00;79.40;;;;;;4957153;29;20192;-88
2022/01/19 06:36:44;;;;;;;31.27;15.10;;;6.00;79.40;;;;;;4943754;29;20240;-88
2022/01/19 06:39:20;;;;;;;28.60;14.30;;;6.00;79.20;;;;;;4941704;29;20181;-88
2022/01/19 06:41:46;;;;;;;27.35;15.05;;;6.10;79.00;;;;;;4941284;29;20215;-86
2022/01/19 06:44:13;;;;;;;25.63;13.38;;;6.20;78.60;;;;;;4942050;29;20477;-87
2022/01/19 06:46:40;;;;;;;27.35;14.43;;;6.10;78.40;;;;;;4961513;28;20188;-88
2022/01/19 06:49:06;;;;;;;30.95;13.75;;;6.10;78.50;;;;;;4952243;29;20196;-86
2022/01/19 06:51:32;;;;;;;24.43;13.83;;;6.10;79.30;;;;;;4944045;29;20539;-87
2022/01/19 06:53:58;;;;;;;23.23;14.52;;;6.10;78.50;;;;;;4947229;29;20263;-87
2022/01/19 06:56:24;;;;;;;23.48;14.40;;;6.20;78.50;;;;;;4948811;29;20219;-87
2022/01/19 06:58:50;;;;;;;20.75;13.63;;;6.10;78.10;;;;;;4958956;28;20621;-87
2022/01/19 07:01:16;;;;;;;21.93;12.77;;;6.10;78.20;;;;;;4941493;29;20247;-87
2022/01/19 07:03:42;;;;;;;20.05;13.27;;;6.10;78.20;;;;;;4940435;29;21114;-87
2022/01/19 07:06:11;;;;;;;24.43;14.83;;;6.00;78.20;;;;;;4940807;29;20208;-87
2022/01/19 07:08:40;;;;;;;19.67;12.75;;;6.00;78.40;;;;;;4941817;29;20530;-87
2022/01/19 07:11:06;;;;;;;25.38;13.52;;;6.10;78.50;;;;;;4958763;29;20653;-87
2022/01/19 07:13:32;;;;;;;24.97;12.13;;;6.10;78.30;;;;;;4944659;29;20230;-87
2022/01/19 07:15:57;;;;;;;27.53;13.23;;;6.20;78.20;;;;;;4945748;29;20448;-87
2022/01/19 07:18:23;;;;;;;29.90;14.43;;;6.10;78.20;;;;;;4940312;29;20181;-87
2022/01/19 07:21:03;;;;;;;25.13;14.03;;;6.20;77.90;;;;;;4944743;28;20247;-87
2022/01/19 07:23:29;;;;;;;28.95;13.50;;;6.30;77.80;;;;;;4959254;28;20419;-87
2022/01/19 07:25:55;;;;;;;28.60;15.27;;;6.10;77.80;;;;;;4950397;28;20212;-87
2022/01/19 07:28:20;;;;;;;20.53;12.73;;;6.20;77.90;;;;;;4944296;29;20188;-87
2022/01/19 07:30:46;;;;;;;24.70;14.17;;;6.30;78.00;;;;;;4940745;29;20189;-87
2022/01/19 07:33:12;;;;;;;24.37;14.90;;;6.30;77.80;;;;;;4958491;29;20213;-87
2022/01/19 07:35:38;;;;;;;28.75;14.48;;;6.30;77.60;;;;;;4946994;29;20212;-87
2022/01/19 07:38:04;;;;;;;27.77;14.00;;;6.20;77.60;;;;;;4951167;29;20220;-88
2022/01/19 07:40:29;;;;;;;24.83;14.10;;;6.10;77.80;;;;;;4963651;28;20435;-87
2022/01/19 07:42:55;;;;;;;19.07;12.37;;;6.30;77.80;;;;;;4972816;28;20755;-87
2022/01/19 07:45:21;;;;;;;20.57;12.40;;;6.30;77.80;;;;;;4962862;28;20175;-87
2022/01/19 07:47:47;;;;;;;20.93;13.27;;;6.50;77.30;;;;;;4983732;28;20198;-87
2022/01/19 07:50:14;;;;;;;21.35;12.70;;;6.50;77.00;;;;;;4965172;28;20478;-87
2022/01/19 07:52:40;;;;;;;28.80;14.45;;;6.40;76.70;;;;;;4963700;28;20179;-87
2022/01/19 07:55:06;;;;;;;22.23;13.20;;;6.60;76.70;;;;;;4960634;28;20699;-87
2022/01/19 07:57:31;;;;;;;24.20;11.53;;;6.60;76.40;;;;;;4943460;29;20232;-87
2022/01/19 07:59:57;;;;;;;31.57;13.27;;;6.50;76.20;;;;;;4945786;29;20506;-87
2022/01/19 08:02:30;;;;;;;23.90;12.90;;;6.50;76.30;;;;;;4952517;28;20172;-87
2022/01/19 08:04:55;;;;;;;24.88;14.38;;;6.30;76.50;;;;;;4958493;29;20412;-87
2022/01/19 08:07:21;;;;;;;20.47;12.80;;;6.50;76.60;;;;;;4962013;29;20205;-87
2022/01/19 08:09:47;;;;;;;22.43;11.40;;;6.60;76.20;;;;;;4953237;28;20297;-86
2022/01/19 08:12:12;;;;;;;28.63;12.20;;;6.60;76.00;;;;;;4963720;28;20218;-87
2022/01/19 08:14:38;;;;;;;19.70;12.30;;;6.60;75.90;;;;;;4959471;28;20180;-87
2022/01/19 08:17:04;;;;;;;25.93;12.93;;;6.60;75.80;;;;;;4961199;28;20247;-87
2022/01/19 08:19:29;;;;;;;24.80;13.50;;;6.50;76.10;;;;;;4978699;28;20181;-87
2022/01/19 08:21:55;;;;;;;20.80;10.50;;;6.60;76.20;;;;;;4960257;28;20263;-87
2022/01/19 08:24:21;;;;;;;16.10;11.00;;;6.70;76.20;;;;;;4964053;28;20172;-88
2022/01/19 08:26:47;;;;;;;25.87;13.80;;;6.60;76.00;;;;;;4963056;28;20204;-87
2022/01/19 08:29:12;;;;;;;20.67;12.60;;;6.60;76.10;;;;;;4941554;29;20649;-87
2022/01/19 08:31:38;;;;;;;17.00;12.10;;;6.60;76.20;;;;;;4945126;29;20180;-88
2022/01/19 08:34:04;;;;;;;18.90;12.07;;;6.60;76.10;;;;;;4941019;29;20200;-88
2022/01/19 08:36:30;;;;;;;19.77;12.38;;;6.80;76.00;;;;;;4942713;29;20208;-87
2022/01/19 08:38:56;;;;;;;20.83;11.87;;;6.80;75.50;;;;;;4971976;29;20199;-88
2022/01/19 08:41:22;;;;;;;20.50;11.50;;;6.70;75.50;;;;;;4955905;29;20451;-89
2022/01/19 08:43:48;;;;;;;26.30;12.73;;;6.60;75.50;;;;;;4941394;29;20248;-88
2022/01/19 08:46:15;;;;;;;19.90;12.55;;;6.60;75.60;;;;;;4967140;28;20454;-88
2022/01/19 08:48:41;;;;;;;19.73;12.50;;;6.70;75.40;;;;;;4953503;28;20180;-87
2022/01/19 08:51:07;;;;;;;21.25;12.65;;;6.70;75.30;;;;;;4959672;28;20290;-87
2022/01/19 08:53:33;;;;;;;30.90;12.20;;;6.80;75.10;;;;;;4958420;28;20180;-87
2022/01/19 08:55:59;;;;;;;21.30;11.77;;;6.80;74.80;;;;;;4958928;28;20939;-87
2022/01/19 08:58:25;;;;;;;19.20;13.50;;;6.70;74.80;;;;;;4959141;28;20556;-88
2022/01/19 09:00:51;;;;;;;18.00;12.70;;;6.70;75.00;;;;;;4958347;28;20184;-87
2022/01/19 09:03:17;;;;;;;20.80;12.03;;;6.70;75.00;;;;;;4959358;28;20179;-88
2022/01/19 09:05:44;;;;;;;18.60;12.02;;;6.70;75.10;;;;;;4960800;28;20281;-88
2022/01/19 09:08:11;;;;;;;29.38;12.55;;;6.90;75.20;;;;;;4967556;28;20203;-88
2022/01/19 09:10:40;;;;;;;28.75;13.18;;;6.90;75.10;;;;;;4980862;28;20195;-88
2022/01/19 09:13:06;;;;;;;25.67;12.38;;;6.60;75.10;;;;;;4962864;28;20264;-88
2022/01/19 09:15:32;;;;;;;27.38;13.98;;;6.60;75.40;;;;;;4955431;29;20185;-89
2022/01/19 09:17:58;;;;;;;20.20;12.43;;;6.60;75.60;;;;;;4942225;29;20212;-87
2022/01/19 09:20:23;;;;;;;21.77;12.17;;;6.50;75.60;;;;;;4940350;29;20181;-86
2022/01/19 09:22:49;;;;;;;25.17;14.13;;;6.60;75.90;;;;;;4940164;29;20252;-87
2022/01/19 09:25:21;;;;;;;23.30;13.27;;;6.70;75.70;;;;;;4941266;29;20196;-87
2022/01/19 09:27:56;;;;;;;21.98;13.20;;;6.60;75.50;;;;;;4939850;29;20451;-87
2022/01/19 09:30:24;;;;;;;22.00;12.68;;;6.60;75.70;;;;;;4940567;29;20319;-87
2022/01/19 09:38:40;;;;;;;27.63;13.48;;;6.90;75.30;;;;;;4952783;28;20220;-87
2022/01/19 09:41:07;;;;;;;31.52;13.73;;;6.90;75.00;;;;;;4939289;29;20203;-87
2022/01/19 09:43:35;;;;;;;26.50;15.40;;;6.90;75.00;;;;;;4943571;29;20228;-88
2022/01/19 09:46:02;;;;;;;23.85;12.30;;;6.80;75.10;;;;;;4944928;29;20200;-87
2022/01/19 09:48:28;;;;;;;23.20;11.98;;;6.80;75.20;;;;;;4941222;29;20188;-87
2022/01/19 09:50:56;;;;;;;22.40;13.00;;;6.90;75.00;;;;;;4939578;29;20185;-86
2022/01/19 09:53:22;;;;;;;27.35;14.77;;;7.00;74.80;;;;;;4938658;29;20172;-87
2022/01/19 09:55:48;;;;;;;21.83;14.23;;;7.00;74.50;;;;;;4938933;29;20230;-87
2022/01/19 09:58:16;;;;;;;25.38;14.93;;;6.70;74.80;;;;;;4938982;29;20188;-86
2022/01/19 10:00:56;;;;;;;24.70;13.35;;;6.80;75.30;;;;;;4939510;29;20212;-87
2022/01/19 10:03:24;;;;;;;25.35;14.18;;;6.70;75.00;;;;;;4938718;29;20172;-86
2022/01/19 10:05:56;;;;;;;25.73;16.10;;;6.70;75.20;;;;;;4938959;29;20200;-86
2022/01/19 10:08:41;;;;;;;25.75;14.25;;;6.70;75.40;;;;;;4939068;29;20177;-87
2022/01/19 10:16:58;;;;;;;30.40;16.77;;;6.70;75.50;;;;;;4938813;29;20177;-87
2022/01/19 10:17:08;;;;;;;24.98;16.15;;;6.70;75.40;;;;;;4958186;29;20223;-86
2022/01/19 10:19:33;;;;;;;32.20;16.02;;;6.60;75.50;;;;;;4956619;29;20176;-85
2022/01/19 10:22:16;;;;;;;29.30;16.10;;;6.80;75.60;;;;;;4942551;29;20195;-85
2022/01/19 10:24:48;;;;;;;23.67;15.38;;;6.80;75.60;;;;;;4940277;29;20200;-86
2022/01/19 10:27:26;;;;;;;27.27;16.10;;;6.80;75.40;;;;;;4939952;28;20828;-88
2022/01/19 10:30:10;;;;;;;34.92;17.52;;;6.80;75.50;;;;;;4944781;29;20199;-88
2022/01/19 10:32:37;;;;;;;27.02;17.15;;;6.80;75.60;;;;;;4957945;28;20185;-88
2022/01/19 10:35:21;;;;;;;25.95;15.73;;;6.80;75.70;;;;;;4943859;29;20252;-88
2022/01/19 10:38:06;;;;;;;31.25;16.40;;;6.90;75.60;;;;;;4944730;28;20200;-88
2022/01/19 10:40:32;;;;;;;28.38;16.15;;;7.00;75.30;;;;;;4960719;28;20188;-88
2022/01/19 10:42:57;;;;;;;30.05;17.08;;;6.70;75.20;;;;;;4961169;28;20242;-89
2022/01/19 10:45:23;;;;;;;42.67;17.40;;;6.70;75.50;;;;;;4965023;28;20176;-88
2022/01/19 10:47:53;;;;;;;24.80;16.27;;;6.60;75.50;;;;;;4963168;28;20243;-89
2022/01/19 10:50:28;;;;;;;28.83;16.67;;;6.80;75.60;;;;;;4984162;28;20173;-87
2022/01/19 10:53:03;;;;;;;26.63;18.20;;;6.90;75.50;;;;;;4959423;29;20180;-88
2022/01/19 10:55:32;;;;;;;35.88;16.40;;;6.90;75.30;;;;;;4946333;29;20192;-87
2022/01/19 10:58:00;;;;;;;32.88;16.95;;;6.80;75.10;;;;;;4944542;29;20216;-87
2022/01/19 11:00:29;;;;;;;31.27;17.50;;;6.80;75.20;;;;;;4945870;29;20181;-87
2022/01/19 11:03:15;;;;;;;26.02;16.63;;;6.90;75.40;;;;;;4942939;29;20184;-87
2022/01/19 11:05:47;;;;;;;53.47;20.30;;;7.00;75.20;;;;;;4943260;29;20252;-87
2022/01/19 11:08:15;;;;;;;27.08;17.35;;;7.10;74.80;;;;;;4979649;28;20173;-87
2022/01/19 11:10:47;;;;;;;30.50;17.20;;;6.80;74.90;;;;;;4961563;28;20176;-87
2022/01/19 11:13:14;;;;;;;31.85;17.58;;;6.70;75.40;;;;;;4967120;28;20215;-85
2022/01/19 11:15:44;;;;;;;32.65;19.00;;;6.80;75.60;;;;;;4959385;29;20268;-85
2022/01/19 11:18:10;;;;;;;30.70;16.00;;;6.90;75.80;;;;;;4947620;29;20215;-86
2022/01/19 11:20:47;;;;;;;34.55;17.17;;;7.10;75.50;;;;;;4942883;28;20181;-86
2022/01/19 11:23:19;;;;;;;31.00;17.60;;;7.00;75.20;;;;;;4942609;29;20184;-86
2022/01/19 11:25:57;;;;;;;32.80;17.08;;;7.00;75.20;;;;;;4943613;29;20201;-87
2022/01/19 11:28:33;;;;;;;41.63;18.63;;;7.10;75.40;;;;;;4941231;29;20660;-87
2022/01/19 11:31:20;;;;;;;33.13;18.45;;;6.90;75.50;;;;;;4940967;29;20192;-87
2022/01/19 11:33:51;;;;;;;33.80;17.65;;;7.00;75.50;;;;;;4937575;29;20184;-87
2022/01/19 11:36:25;;;;;;;33.47;18.83;;;7.00;75.50;;;;;;4941801;29;20208;-88
2022/01/19 11:39:12;;;;;;;31.73;17.90;;;7.00;75.60;;;;;;4943757;29;20192;-89
2022/01/19 11:41:54;;;;;;;28.90;16.25;;;7.20;75.50;;;;;;4942113;29;20196;-89
2022/01/19 11:44:40;;;;;;;31.35;17.15;;;7.30;75.20;;;;;;4941236;29;20215;-88
2022/01/19 11:47:09;;;;;;;33.28;17.00;;;7.40;75.00;;;;;;4951532;28;20208;-88
2022/01/19 11:49:50;;;;;;;33.83;17.23;;;7.40;74.50;;;;;;4992914;23;20228;-88
2022/01/19 11:52:19;;;;;;;29.20;18.30;;;7.40;74.70;;;;;;4965823;28;20218;-89
2022/01/19 11:54:45;;;;;;;34.78;17.95;;;7.70;74.70;;;;;;4969847;28;20273;-88
2022/01/19 11:57:34;;;;;;;32.58;18.20;;;7.70;74.00;;;;;;4966913;28;20196;-88
2022/01/19 12:00:31;;;;;;;39.30;17.33;;;7.80;73.80;;;;;;4967427;28;20200;-89
2022/01/19 12:02:59;;;;;;;43.30;16.63;;;7.90;73.80;;;;;;4946452;29;20173;-89
2022/01/19 12:05:38;;;;;;;39.25;17.67;;;8.00;73.10;;;;;;4976068;28;20175;-89
2022/01/19 12:08:35;;;;;;;31.23;17.20;;;7.90;73.10;;;;;;4964899;28;20214;-90
2022/01/19 12:11:12;;;;;;;30.70;17.45;;;7.90;73.20;;;;;;4967613;28;20207;-90
2022/01/19 12:14:09;;;;;;;29.88;16.00;;;7.80;73.30;;;;;;4963996;28;20234;-90
2022/01/19 12:19:06;;;;;;;35.67;17.15;;;7.90;73.70;;;;;;4991306;28;20163;-91
2022/01/19 12:21:32;;;;;;;35.43;16.23;;;7.90;73.60;;;;;;4973372;28;20179;-91
2022/01/19 12:24:22;;;;;;;34.43;17.20;;;8.00;73.40;;;;;;4981044;28;20259;-91
2022/01/19 12:27:15;;;;;;;33.17;18.13;;;7.90;73.40;;;;;;4981775;28;20176;-90
2022/01/19 12:30:04;;;;;;;35.22;17.75;;;7.90;73.70;;;;;;4960354;28;20726;-90
2022/01/19 12:32:44;;;;;;;44.75;18.60;;;7.90;73.90;;;;;;4977098;28;20282;-90
2022/01/19 12:35:23;;;;;;;29.00;17.88;;;7.90;73.80;;;;;;4959311;28;20183;-90
2022/01/19 12:37:52;;;;;;;30.52;17.35;;;7.80;73.80;;;;;;4964316;28;20210;-91
2022/01/19 12:40:18;;;;;;;36.60;19.00;;;7.70;74.30;;;;;;4963381;28;20197;-91
2022/01/19 12:43:01;;;;;;;37.17;18.33;;;7.90;74.50;;;;;;4977456;28;20303;-88
2022/01/19 12:45:33;;;;;;;34.83;17.38;;;8.10;74.20;;;;;;4968352;28;20180;-89
2022/01/19 12:48:07;;;;;;;30.58;17.45;;;8.00;74.00;;;;;;4976350;28;20165;-89
2022/01/19 12:50:32;;;;;;;39.70;17.50;;;8.00;74.70;;;;;;4970717;28;20211;-89
2022/01/19 12:53:13;;;;;;;31.93;18.17;;;8.00;73.90;;;;;;4958625;28;20180;-89
2022/01/19 12:55:41;;;;;;;44.55;20.00;;;8.10;74.00;;;;;;4959944;28;20182;-89
2022/01/19 12:58:16;;;;;;;40.63;20.30;;;8.10;73.70;;;;;;4959170;28;20231;-88
2022/01/19 13:00:45;;;;;;;35.42;19.00;;;8.10;73.70;;;;;;4959552;28;20187;-89
2022/01/19 13:03:34;;;;;;;41.75;20.30;;;8.00;73.80;;;;;;4960218;28;20203;-88
2022/01/19 13:06:05;;;;;;;42.60;18.92;;;7.90;74.00;;;;;;4965425;28;20167;-89
2022/01/19 13:08:38;;;;;;;34.55;18.80;;;7.90;74.20;;;;;;4973103;28;20172;-89
2022/01/19 13:11:19;;;;;;;42.80;20.23;;;7.90;74.20;;;;;;4977686;28;20230;-89
2022/01/19 13:13:56;;;;;;;39.17;18.73;;;7.90;74.40;;;;;;4975042;28;20540;-89
2022/01/19 13:16:45;;;;;;;38.53;18.80;;;8.00;74.50;;;;;;4965997;28;20631;-89
2022/01/19 13:19:12;;;;;;;36.47;18.40;;;8.00;74.70;;;;;;4940080;29;20187;-89
2022/01/19 13:21:41;;;;;;;44.28;20.25;;;7.80;74.60;;;;;;4954811;28;20176;-89
2022/01/19 13:24:22;;;;;;;33.60;18.33;;;7.60;74.80;;;;;;4959224;28;20172;-89
2022/01/19 13:27:02;;;;;;;32.65;17.17;;;7.60;75.20;;;;;;4986066;28;20164;-88
2022/01/19 13:29:36;;;;;;;32.80;18.27;;;7.70;75.60;;;;;;4984806;28;20271;-88
2022/01/19 13:32:12;;;;;;;41.17;18.83;;;7.70;75.60;;;;;;4988075;28;20172;-88
2022/01/19 13:34:53;;;;;;;30.70;19.48;;;7.70;75.60;;;;;;4962777;28;20210;-88
2022/01/19 13:37:21;;;;;;;46.15;18.15;;;7.90;75.60;;;;;;4959102;28;20191;-89
2022/01/19 13:40:18;;;;;;;37.58;17.65;;;8.00;75.20;;;;;;4960072;28;20223;-88
2022/01/19 13:43:00;;;;;;;39.95;19.10;;;8.00;75.10;;;;;;4961069;28;20562;-89
2022/01/19 13:48:27;;;;;;;43.05;19.70;;;7.80;75.20;;;;;;4984705;28;20179;-90
2022/01/19 13:50:58;;;;;;;37.17;17.63;;;7.90;75.50;;;;;;4956763;28;20302;-89
2022/01/19 13:53:33;;;;;;;35.15;18.13;;;8.00;75.60;;;;;;4964534;28;20282;-90
2022/01/19 13:56:02;;;;;;;51.53;21.58;;;7.90;75.60;;;;;;4963119;28;20256;-90
2022/01/19 13:58:35;;;;;;;41.70;20.23;;;7.90;75.70;;;;;;4961770;28;20810;-90
2022/01/19 14:01:07;;;;;;;41.40;18.80;;;7.80;75.60;;;;;;4963073;28;20658;-90
2022/01/19 14:03:56;;;;;;;37.50;17.85;;;8.00;75.80;;;;;;4962701;28;20188;-89
2022/01/19 14:06:31;;;;;;;40.38;19.58;;;8.00;75.90;;;;;;4981105;28;20223;-90
2022/01/19 14:09:07;;;;;;;36.95;19.13;;;8.10;75.80;;;;;;4966738;28;20210;-90
2022/01/19 14:11:33;;;;;;;36.58;20.20;;;8.00;75.50;;;;;;4958653;28;20592;-90
2022/01/19 14:14:01;;;;;;;40.65;19.95;;;8.00;75.40;;;;;;4974522;28;20190;-89
2022/01/19 14:16:35;;;;;;;41.72;21.00;;;8.00;75.40;;;;;;4968587;28;20298;-90
2022/01/19 14:19:11;;;;;;;33.35;19.67;;;7.90;75.50;;;;;;4962300;28;20182;-87
2022/01/19 14:21:56;;;;;;;48.22;20.20;;;7.80;75.70;;;;;;4965848;28;20172;-90
2022/01/19 14:24:22;;;;;;;40.67;20.67;;;7.80;75.80;;;;;;4962950;28;20196;-90
2022/01/19 14:26:51;;;;;;;42.38;19.58;;;7.80;75.80;;;;;;4985939;28;20184;-89